Time;durP1;ratioP1;P1;durP2;ratioP2;P2;SDS_P1;SDS_P2;PMS_P1;PMS_P2;Temp;Humidity;BMP_temperature;BMP_pressure;BME280_temperature;BME280_humidity;BME280_pressure;Samples;Min_cycle;Max_cycle;Signal;HPM_P1;HPM_P2
2021/07/06 02:46:47;;;;;;;6.38;2.17;;;;;;;17.26;76.48;99130.47;2213678;40;21150;-84
2021/07/06 02:48:19;;;;;;;11.02;2.63;;;;;;;17.27;76.66;99140.25;2210008;40;20042;-84
2021/07/06 02:49:50;;;;;;;7.55;2.53;;;;;;;17.29;76.59;99142.72;2210439;40;20555;-85
2021/07/06 02:51:22;;;;;;;9.15;2.58;;;;;;;17.23;76.72;99141.69;2210012;40;20027;-84
2021/07/06 02:52:53;;;;;;;9.70;3.80;;;;;;;17.23;76.90;99141.69;2209809;40;20054;-84
2021/07/06 02:54:25;;;;;;;10.40;3.38;;;;;;;17.25;76.85;99138.78;2209887;40;20097;-83
2021/07/06 02:55:57;;;;;;;12.15;3.38;;;;;;;17.21;77.01;99138.38;2210071;40;20035;-85
2021/07/06 02:57:34;;;;;;;9.40;2.67;;;;;;;17.18;76.97;99140.66;2210096;40;20038;-86
2021/07/06 02:59:06;;;;;;;9.40;2.72;;;;;;;17.20;77.29;99146.69;2210140;40;20051;-86
2021/07/06 03:00:38;;;;;;;8.07;3.00;;;;;;;17.22;76.95;99140.03;2210008;40;20030;-85
2021/07/06 03:02:11;;;;;;;8.00;2.70;;;;;;;17.27;76.63;99150.22;2209926;40;20038;-84
2021/07/06 03:03:43;;;;;;;7.75;2.47;;;;;;;17.21;76.65;99148.34;2210040;40;20034;-84
2021/07/06 03:05:17;;;;;;;11.23;2.58;;;;;;;17.19;76.53;99155.84;2210026;40;20037;-85
2021/07/06 03:06:49;;;;;;;10.43;3.00;;;;;;;17.10;76.80;99147.09;2210012;40;20041;-84
2021/07/06 03:08:21;;;;;;;8.13;2.22;;;;;;;17.06;76.98;99137.78;2209872;40;20038;-85
2021/07/06 03:09:52;;;;;;;8.60;3.05;;;;;;;17.08;77.02;99146.50;2209641;40;20030;-87
2021/07/06 04:57:53;;;;;;;9.20;2.60;;;;;;;17.81;74.42;99059.00;2221502;40;19987;-87
2021/07/06 04:59:25;;;;;;;9.15;3.30;;;;;;;17.84;74.23;99055.88;2222908;40;20021;-85
2021/07/06 05:00:58;;;;;;;9.50;3.38;;;;;;;17.90;74.49;99049.56;2222749;40;20079;-85
2021/07/06 05:02:30;;;;;;;7.22;3.10;;;;;;;17.87;74.01;99044.59;2223076;40;20025;-88
2021/07/06 05:04:03;;;;;;;10.02;3.03;;;;;;;17.86;74.20;99037.53;2223582;40;20029;-88
2021/07/06 05:05:39;;;;;;;9.48;3.63;;;;;;;17.92;74.11;99047.50;2210664;40;20027;-85
2021/07/06 05:07:11;;;;;;;8.80;3.25;;;;;;;17.95;74.07;99046.22;2204542;40;20124;-86
2021/07/06 05:59:17;;;;;;;7.07;2.75;;;;;;;19.33;70.30;99040.06;2217234;40;20036;-82
2021/07/06 06:00:48;;;;;;;8.65;3.05;;;;;;;19.35;70.09;99043.38;2210579;40;20186;-82
2021/07/06 06:02:20;;;;;;;7.47;3.00;;;;;;;19.35;69.79;99048.78;2200646;40;20047;-83
2021/07/06 06:03:51;;;;;;;8.07;2.70;;;;;;;19.39;70.05;99044.56;2200036;40;20035;-84
2021/07/06 06:05:23;;;;;;;10.48;2.55;;;;;;;19.47;69.62;99033.41;2210445;40;20034;-83
2021/07/06 06:06:55;;;;;;;8.50;3.25;;;;;;;19.53;69.50;99034.38;2212979;40;20034;-82
2021/07/06 06:08:26;;;;;;;30.70;3.75;;;;;;;19.64;69.42;99035.50;2216259;40;20037;-83
2021/07/06 06:09:57;;;;;;;7.40;2.40;;;;;;;19.69;69.40;99035.63;2219719;40;20041;-83
2021/07/06 06:11:29;;;;;;;8.82;2.53;;;;;;;19.72;69.38;99032.47;2220197;40;20041;-83
2021/07/06 06:13:00;;;;;;;12.23;4.00;;;;;;;19.70;69.24;99042.72;2220013;40;20029;-84
2021/07/06 06:14:33;;;;;;;7.90;3.30;;;;;;;19.72;69.20;99042.47;2219747;40;20026;-82
2021/07/06 06:16:07;;;;;;;10.98;3.10;;;;;;;19.78;69.12;99049.72;2214686;40;20030;-81
2021/07/06 06:17:41;;;;;;;7.32;2.70;;;;;;;19.84;69.03;99050.69;2211043;40;20034;-82
2021/07/06 06:19:12;;;;;;;8.35;2.42;;;;;;;19.88;68.99;99038.31;2206682;40;20069;-81
2021/07/06 06:20:44;;;;;;;12.00;3.30;;;;;;;19.97;68.64;99038.84;2214443;40;20030;-82
2021/07/06 06:22:16;;;;;;;10.02;2.75;;;;;;;20.02;68.64;99042.53;2206339;40;20054;-82
2021/07/06 06:23:48;;;;;;;14.75;3.63;;;;;;;20.07;68.37;99042.63;2214232;40;20033;-81
2021/07/06 06:25:19;;;;;;;9.73;2.80;;;;;;;20.12;68.48;99046.56;2214067;40;20038;-82
2021/07/06 06:26:50;;;;;;;7.80;2.88;;;;;;;20.17;68.09;99043.97;2211382;40;20547;-82
2021/07/06 06:28:22;;;;;;;9.18;2.42;;;;;;;20.24;67.84;99045.53;2205439;40;20031;-82
2021/07/06 06:29:55;;;;;;;9.57;3.10;;;;;;;20.31;68.02;99045.38;2211813;40;20042;-82
2021/07/06 06:31:27;;;;;;;8.63;2.83;;;;;;;20.37;67.60;99049.91;2218395;40;20044;-83
2021/07/06 06:32:59;;;;;;;9.55;4.10;;;;;;;20.45;67.65;99058.75;2216117;40;20034;-82
2021/07/06 06:34:31;;;;;;;11.85;3.97;;;;;;;20.48;67.42;99052.88;2213370;40;20376;-82
2021/07/06 06:36:03;;;;;;;10.60;3.22;;;;;;;20.54;67.25;99049.22;2211109;40;20156;-86
2021/07/06 06:37:37;;;;;;;7.40;3.60;;;;;;;20.58;66.91;99066.69;2216289;40;20032;-88
2021/07/06 06:39:09;;;;;;;5.55;2.55;;;;;;;20.63;66.82;99064.09;2216339;40;20026;-90
2021/07/06 06:40:41;;;;;;;12.90;3.40;;;;;;;20.70;66.51;99059.38;2203387;40;20038;-89
2021/07/06 06:42:13;;;;;;;7.28;2.25;;;;;;;20.76;66.51;99057.63;2197583;40;20448;-83
2021/07/06 06:43:44;;;;;;;9.48;2.20;;;;;;;20.84;66.07;99051.84;2210014;40;20053;-82
2021/07/06 06:45:18;;;;;;;6.57;2.13;;;;;;;20.92;66.26;99050.66;2212063;40;20038;-84
2021/07/06 06:46:49;;;;;;;4.82;2.22;;;;;;;21.04;65.86;99042.50;2212527;40;20034;-83
2021/07/06 06:48:21;;;;;;;11.50;2.85;;;;;;;21.16;65.64;99047.94;2211471;40;20049;-84
2021/07/06 06:49:53;;;;;;;8.15;2.00;;;;;;;21.25;65.25;99043.78;2206432;40;20061;-83
2021/07/06 06:51:25;;;;;;;6.03;2.17;;;;;;;21.39;65.19;99038.06;2210669;40;20041;-83
2021/07/06 06:52:57;;;;;;;5.00;1.92;;;;;;;21.50;64.75;99029.88;2209435;40;20030;-82
2021/07/06 06:54:28;;;;;;;8.02;2.50;;;;;;;21.64;64.34;99022.28;2211982;40;20351;-83
2021/07/06 06:55:59;;;;;;;4.95;1.55;;;;;;;21.77;63.63;99029.31;2213102;40;20037;-84
2021/07/06 06:57:30;;;;;;;3.67;1.98;;;;;;;21.93;63.43;99032.34;2212784;40;20030;-81
2021/07/06 06:59:02;;;;;;;6.55;1.58;;;;;;;22.08;62.91;99037.25;2212606;40;20026;-82
2021/07/06 07:00:36;;;;;;;5.25;1.70;;;;;;;22.17;62.08;99040.38;2212863;40;20026;-82
2021/07/06 07:02:20;;;;;;;6.45;1.70;;;;;;;22.20;62.37;99034.44;2213075;40;20045;-81
2021/07/06 07:03:52;;;;;;;6.60;1.48;;;;;;;22.33;62.03;99030.56;2218873;40;20049;-80
2021/07/06 07:05:24;;;;;;;5.05;1.40;;;;;;;22.47;61.83;99036.53;2221824;40;20052;-81
2021/07/06 07:06:54;;;;;;;4.13;1.45;;;;;;;22.59;61.50;99032.66;2220454;40;20064;-82
2021/07/06 07:08:26;;;;;;;8.00;1.58;;;;;;;22.61;61.30;99042.47;2216672;40;20397;-80
2021/07/06 07:09:58;;;;;;;9.85;1.80;;;;;;;22.64;61.35;99031.09;2216854;40;20045;-81
2021/07/06 07:11:29;;;;;;;5.55;1.73;;;;;;;22.75;61.25;99038.34;2217365;40;20747;-83
2021/07/06 07:13:01;;;;;;;7.80;1.42;;;;;;;22.77;61.03;99033.44;2218428;40;20046;-82
2021/07/06 07:14:32;;;;;;;5.45;1.65;;;;;;;22.84;61.01;99049.63;2215940;40;20042;-81
2021/07/06 07:16:05;;;;;;;9.15;1.73;;;;;;;22.93;60.98;99052.75;2215707;40;20030;-82
2021/07/06 07:17:38;;;;;;;6.28;1.55;;;;;;;22.92;60.93;99064.72;2214122;40;20044;-82
2021/07/06 07:19:08;;;;;;;4.00;1.38;;;;;;;22.89;61.18;99068.78;2218242;40;20033;-81
2021/07/06 07:20:40;;;;;;;7.85;2.00;;;;;;;22.86;61.38;99070.09;2217316;40;20049;-81
2021/07/06 07:22:13;;;;;;;7.28;1.55;;;;;;;22.85;61.50;99071.19;2217415;40;20064;-82
2021/07/06 07:23:45;;;;;;;4.38;1.67;;;;;;;22.89;61.45;99064.16;2217135;40;20061;-80
2021/07/06 07:25:17;;;;;;;7.03;1.27;;;;;;;22.94;61.07;99057.16;2218574;40;20025;-80
2021/07/06 07:26:48;;;;;;;8.93;1.70;;;;;;;22.93;60.45;99050.03;2211499;40;20049;-82
2021/07/06 07:28:20;;;;;;;5.60;1.90;;;;;;;22.93;60.40;99047.31;2217707;40;20029;-82
2021/07/06 07:29:51;;;;;;;6.00;1.52;;;;;;;22.99;60.43;99038.97;2217343;40;20354;-80
2021/07/06 07:31:24;;;;;;;8.60;1.58;;;;;;;23.09;60.11;99038.28;2215118;40;20041;-81
2021/07/06 07:32:56;;;;;;;4.03;1.25;;;;;;;23.27;59.95;99031.72;2219093;40;20045;-83
2021/07/06 07:34:28;;;;;;;4.15;1.15;;;;;;;23.41;59.40;99034.06;2215720;40;20045;-82
2021/07/06 07:36:00;;;;;;;5.78;2.15;;;;;;;23.52;58.89;99022.19;2216569;40;20045;-82
2021/07/06 07:37:32;;;;;;;4.97;1.75;;;;;;;23.57;58.81;99015.97;2218328;40;20324;-81
2021/07/06 07:39:04;;;;;;;5.43;1.15;;;;;;;23.68;57.95;99023.19;2218173;40;20034;-81
2021/07/06 07:40:35;;;;;;;4.18;1.70;;;;;;;23.82;57.04;99018.16;2219241;40;20119;-83
2021/07/06 07:42:06;;;;;;;6.88;1.90;;;;;;;23.97;56.61;99023.78;2219512;40;20344;-80
2021/07/06 07:43:38;;;;;;;6.20;1.48;;;;;;;24.19;55.46;99027.53;2216743;40;20069;-82
2021/07/06 07:45:11;;;;;;;5.00;1.25;;;;;;;24.29;54.96;99028.47;2218879;40;20045;-81
2021/07/06 07:46:44;;;;;;;21.80;3.25;;;;;;;24.40;54.39;99029.34;2215329;40;20034;-81
2021/07/06 07:48:16;;;;;;;5.60;1.60;;;;;;;24.43;54.05;99025.28;2218117;40;20033;-81
2021/07/06 07:49:48;;;;;;;7.88;1.15;;;;;;;24.40;53.41;99026.63;2222677;40;20077;-82
2021/07/06 07:51:19;;;;;;;5.25;1.10;;;;;;;24.39;53.34;99014.03;2224117;40;20036;-79
2021/07/06 07:52:51;;;;;;;4.25;1.30;;;;;;;24.39;53.67;99016.78;2226918;40;20017;-80
2021/07/06 07:54:22;;;;;;;5.57;1.10;;;;;;;24.49;53.17;99015.22;2220453;40;20072;-79
2021/07/06 07:55:55;;;;;;;3.90;0.80;;;;;;;24.69;52.36;99001.72;2221088;40;20041;-80
2021/07/06 07:57:25;;;;;;;3.83;0.88;;;;;;;24.92;51.24;98997.75;2220793;40;20128;-79
2021/07/06 07:58:57;;;;;;;2.85;1.15;;;;;;;25.06;51.35;99006.31;2226980;40;20526;-79
2021/07/06 08:00:29;;;;;;;2.60;0.98;;;;;;;25.12;51.10;99001.69;2221703;40;20044;-82
2021/07/06 08:02:01;;;;;;;4.47;1.50;;;;;;;25.15;50.67;99000.31;2220559;40;20106;-81
2021/07/06 08:03:33;;;;;;;3.30;0.90;;;;;;;25.13;50.86;98992.41;2218747;40;20047;-79
2021/07/06 08:05:06;;;;;;;3.83;1.00;;;;;;;25.17;50.60;98992.69;2220142;40;20037;-80
2021/07/06 08:06:38;;;;;;;13.68;1.70;;;;;;;25.21;49.97;99002.81;2219719;40;20040;-79
2021/07/06 08:08:09;;;;;;;4.38;1.17;;;;;;;25.19;50.20;99002.25;2218039;40;20227;-82
2021/07/06 08:09:40;;;;;;;3.08;0.90;;;;;;;25.20;50.07;98997.63;2219288;40;20033;-81
2021/07/06 08:11:12;;;;;;;4.50;1.38;;;;;;;25.25;50.00;98994.09;2215985;40;20400;-81
2021/07/06 08:12:44;;;;;;;3.03;1.15;;;;;;;25.36;49.81;98996.59;2214855;40;20041;-81
2021/07/06 08:14:15;;;;;;;3.22;1.17;;;;;;;25.45;49.66;98999.66;2220696;40;20041;-83
2021/07/06 08:15:47;;;;;;;2.47;1.00;;;;;;;25.50;49.56;99002.41;2219354;40;20119;-81
2021/07/06 08:17:19;;;;;;;2.22;0.75;;;;;;;25.50;49.71;99009.81;2217794;40;20032;-81
2021/07/06 08:18:51;;;;;;;4.32;1.27;;;;;;;25.46;49.65;99022.34;2214389;40;20049;-81
2021/07/06 08:20:23;;;;;;;6.22;1.50;;;;;;;25.41;49.70;99019.63;2222887;40;20033;-87
2021/07/06 08:21:55;;;;;;;3.60;1.17;;;;;;;25.38;49.80;99021.75;2226271;40;20057;-88
2021/07/06 08:23:27;;;;;;;5.15;1.10;;;;;;;25.36;49.54;99028.59;2226505;40;20029;-87
2021/07/06 08:24:59;;;;;;;5.72;1.15;;;;;;;25.37;49.99;99036.53;2227202;40;20033;-86
2021/07/06 08:26:32;;;;;;;2.17;0.80;;;;;;;25.41;49.63;99036.84;2227172;40;20119;-86
2021/07/06 08:28:05;;;;;;;4.50;1.08;;;;;;;25.45;49.53;99026.19;2226118;40;20041;-85
2021/07/06 08:29:37;;;;;;;8.30;1.58;;;;;;;25.51;49.72;99016.91;2227750;40;20084;-86
2021/07/06 08:31:09;;;;;;;5.22;1.30;;;;;;;25.48;50.13;99020.19;2226231;40;20044;-84
2021/07/06 08:32:42;;;;;;;63.08;7.28;;;;;;;25.65;50.36;99015.31;2224776;40;20040;-86
2021/07/06 08:34:13;;;;;;;33.25;4.20;;;;;;;25.74;50.46;99028.47;2225154;40;20037;-84
2021/07/06 08:35:45;;;;;;;32.20;3.42;;;;;;;25.80;50.05;99038.31;2225593;40;20033;-84
2021/07/06 08:37:16;;;;;;;17.83;2.92;;;;;;;25.74;50.55;99044.88;2213387;40;20038;-84
2021/07/06 08:38:48;;;;;;;16.92;3.15;;;;;;;25.69;50.84;99048.44;2212206;40;20041;-85
2021/07/06 08:40:20;;;;;;;16.63;2.95;;;;;;;25.68;50.77;99053.09;2211884;40;20392;-85
2021/07/06 08:41:52;;;;;;;12.23;2.00;;;;;;;25.61;51.00;99074.38;2213488;40;20030;-83
2021/07/06 08:43:24;;;;;;;5.25;1.13;;;;;;;25.55;51.49;99083.66;2219825;40;20038;-84
2021/07/06 08:44:54;;;;;;;5.65;1.60;;;;;;;25.49;51.42;99090.22;2220068;40;20048;-86
2021/07/06 08:46:27;;;;;;;5.50;1.20;;;;;;;25.44;51.57;99106.59;2218502;40;20033;-83
2021/07/06 08:47:59;;;;;;;5.10;1.40;;;;;;;25.36;51.79;99110.66;2219757;40;20377;-85
2021/07/06 08:49:35;;;;;;;8.20;1.50;;;;;;;25.26;51.73;99122.34;2213833;40;20397;-85
2021/07/06 08:51:08;;;;;;;9.77;1.60;;;;;;;25.18;52.08;99133.78;2213777;40;20041;-85
2021/07/06 08:52:45;;;;;;;8.68;1.30;;;;;;;25.12;51.96;99132.09;2213290;40;20138;-84
2021/07/06 08:54:17;;;;;;;4.10;1.40;;;;;;;25.08;52.57;99135.34;2212740;40;20123;-85
2021/07/06 08:55:48;;;;;;;5.55;1.50;;;;;;;25.06;52.41;99133.97;2211881;40;20038;-87
2021/07/06 08:57:22;;;;;;;5.65;1.77;;;;;;;25.04;52.78;99147.88;2212584;40;20034;-84
2021/07/06 08:58:54;;;;;;;4.85;1.83;;;;;;;25.06;52.72;99147.66;2212450;40;20034;-85
2021/07/06 09:00:29;;;;;;;4.70;1.50;;;;;;;25.12;52.66;99154.78;2212271;40;20064;-85
2021/07/06 09:02:01;;;;;;;4.57;2.10;;;;;;;25.15;52.89;99162.47;2211889;40;20100;-82
2021/07/06 09:03:54;;;;;;;4.07;1.50;;;;;;;25.18;52.54;99170.13;2213256;40;20049;-85
2021/07/06 09:05:27;;;;;;;5.43;1.60;;;;;;;25.20;53.05;99195.31;2213567;40;20042;-85
2021/07/06 09:06:59;;;;;;;4.18;1.38;;;;;;;25.21;52.88;99207.91;2214194;40;20038;-83
2021/07/06 09:08:31;;;;;;;5.13;1.63;;;;;;;25.13;53.06;99215.78;2214250;40;20034;-87
2021/07/06 09:10:12;;;;;;;19.77;2.13;;;;;;;24.82;53.55;99227.25;2214792;40;20026;-84
2021/07/06 09:11:46;;;;;;;8.15;2.08;;;;;;;24.55;54.06;99229.97;2214859;40;20488;-86
2021/07/06 09:13:19;;;;;;;7.28;1.30;;;;;;;24.36;54.20;99246.72;2214911;40;20485;-84
2021/07/06 09:14:51;;;;;;;5.45;1.40;;;;;;;24.23;54.60;99244.34;2215206;40;20046;-84
2021/07/06 09:16:26;;;;;;;10.65;1.58;;;;;;;24.10;55.12;99248.31;2213602;40;20206;-82
2021/07/06 09:18:10;;;;;;;4.95;1.88;;;;;;;23.99;55.53;99274.66;2213983;40;20034;-83
2021/07/06 09:19:44;;;;;;;8.55;1.60;;;;;;;23.98;55.56;99278.44;2213791;40;20045;-84
2021/07/06 09:21:16;;;;;;;10.73;1.80;;;;;;;23.89;56.13;99297.13;2216287;40;20030;-84
2021/07/06 09:22:48;;;;;;;5.90;1.58;;;;;;;23.78;56.39;99317.13;2214471;40;20112;-84
2021/07/06 09:24:23;;;;;;;6.28;1.60;;;;;;;23.66;56.56;99320.78;2214565;40;20030;-84
2021/07/06 09:26:11;;;;;;;4.50;1.40;;;;;;;23.51;56.93;99339.63;2214603;40;20041;-84
2021/07/06 09:27:43;;;;;;;5.00;1.60;;;;;;;23.38;57.46;99335.34;2221814;40;20033;-83
2021/07/06 09:29:16;;;;;;;10.95;1.48;;;;;;;23.23;57.22;99362.34;2226037;40;20041;-83
2021/07/06 09:30:46;;;;;;;4.65;1.17;;;;;;;22.96;57.97;99357.44;2224072;40;20897;-80
2021/07/06 09:32:23;;;;;;;4.53;1.10;;;;;;;22.78;58.83;99359.28;2223095;40;20051;-81
2021/07/06 09:34:00;;;;;;;6.95;1.85;;;;;;;22.61;60.49;99380.19;2221283;40;20287;-83
2021/07/06 09:35:34;;;;;;;11.48;1.40;;;;;;;22.37;61.96;99402.00;2214553;40;20026;-84
2021/07/06 09:37:06;;;;;;;2.92;1.02;;;;;;;22.10;63.64;99400.56;2215146;40;20034;-88
2021/07/06 09:38:57;;;;;;;3.28;1.00;;;;;;;21.92;64.61;99404.22;2215820;40;20038;-87
2021/07/06 09:40:32;;;;;;;5.25;1.50;;;;;;;21.66;66.46;99406.31;2215998;40;20042;-89
2021/07/06 09:42:06;;;;;;;6.78;1.13;;;;;;;21.37;67.60;99415.31;2215602;40;20322;-85
2021/07/06 09:43:37;;;;;;;5.75;1.42;;;;;;;21.30;68.26;99424.41;2215601;40;20030;-88
2021/07/06 09:45:10;;;;;;;5.97;1.38;;;;;;;21.19;69.37;99411.59;2214639;40;20038;-87
2021/07/06 09:46:47;;;;;;;4.30;1.38;;;;;;;21.08;69.79;99404.22;2214907;40;20034;-85
2021/07/06 09:48:19;;;;;;;4.30;1.20;;;;;;;20.95;70.47;99416.09;2212247;40;20029;-82
2021/07/06 09:49:55;;;;;;;4.13;1.38;;;;;;;20.76;71.12;99426.97;2215232;40;20033;-83
2021/07/06 09:51:27;;;;;;;5.40;1.45;;;;;;;20.71;72.01;99424.91;2218306;40;20029;-83
2021/07/06 09:53:00;;;;;;;5.13;1.15;;;;;;;20.75;72.12;99410.91;2218918;40;20026;-83
2021/07/06 09:54:34;;;;;;;3.58;1.30;;;;;;;20.83;71.88;99405.16;2217101;40;20113;-84
2021/07/06 09:56:08;;;;;;;4.40;1.42;;;;;;;20.88;72.29;99402.56;2217649;40;20056;-85
2021/07/06 09:57:41;;;;;;;4.20;1.27;;;;;;;20.84;72.50;99402.22;2220238;40;20033;-83
2021/07/06 09:59:14;;;;;;;3.85;1.42;;;;;;;20.84;73.02;99395.97;2226033;40;20029;-84
2021/07/06 10:00:46;;;;;;;4.03;1.27;;;;;;;20.84;72.91;99383.19;2226359;40;20037;-85
2021/07/06 10:02:20;;;;;;;4.65;1.40;;;;;;;20.80;72.81;99383.88;2226053;40;20045;-86
2021/07/06 10:03:53;;;;;;;8.68;1.67;;;;;;;20.78;73.42;99386.84;2215074;40;20042;-84
2021/07/06 10:05:25;;;;;;;4.45;1.08;;;;;;;20.72;73.96;99376.84;2214855;40;20029;-84
2021/07/06 10:07:00;;;;;;;4.82;1.60;;;;;;;20.61;74.07;99381.16;2214083;40;20046;-85
2021/07/06 10:08:31;;;;;;;5.13;1.70;;;;;;;20.55;74.14;99382.88;2215063;40;20034;-86
2021/07/06 10:10:08;;;;;;;4.43;1.50;;;;;;;20.49;74.64;99374.84;2214166;40;20089;-86
2021/07/06 10:11:40;;;;;;;4.70;1.63;;;;;;;20.44;74.97;99380.09;2215381;40;20038;-87
2021/07/06 10:13:12;;;;;;;4.68;1.40;;;;;;;20.46;75.01;99373.38;2214733;40;20041;-86
2021/07/06 10:14:44;;;;;;;3.40;1.33;;;;;;;20.55;74.39;99368.50;2215223;40;20030;-85
2021/07/06 10:16:18;;;;;;;3.35;1.20;;;;;;;20.64;73.72;99367.13;2214989;40;20044;-85
2021/07/06 10:17:51;;;;;;;3.00;1.27;;;;;;;20.75;73.77;99345.72;2215131;40;20042;-85
2021/07/06 10:19:24;;;;;;;3.28;1.10;;;;;;;20.78;73.79;99337.94;2215525;40;20042;-86
2021/07/06 10:20:56;;;;;;;4.88;1.75;;;;;;;20.93;73.73;99337.53;2215178;40;20026;-85
2021/07/06 10:22:29;;;;;;;3.25;1.10;;;;;;;21.17;73.06;99340.31;2215035;40;20033;-84
2021/07/06 10:24:04;;;;;;;2.72;1.00;;;;;;;21.37;72.54;99336.47;2215354;40;20071;-85
2021/07/06 10:25:37;;;;;;;3.67;1.10;;;;;;;21.55;71.80;99328.22;2215218;40;20046;-84
2021/07/06 10:27:16;;;;;;;2.80;0.93;;;;;;;21.60;71.55;99327.56;2215309;40;20183;-83
2021/07/06 10:28:52;;;;;;;3.25;1.40;;;;;;;21.69;71.42;99315.25;2215142;40;20074;-85
2021/07/06 10:30:29;;;;;;;2.67;1.20;;;;;;;21.79;71.31;99320.13;2216314;40;20037;-89
2021/07/06 10:32:02;;;;;;;4.50;1.52;;;;;;;21.77;71.04;99319.53;2216349;40;20393;-89
2021/07/06 10:33:36;;;;;;;2.33;0.90;;;;;;;21.65;70.95;99324.97;2216375;40;20135;-88
2021/07/06 10:35:10;;;;;;;3.10;1.60;;;;;;;21.71;70.78;99336.81;2203394;40;20560;-87
2021/07/06 10:36:45;;;;;;;3.28;1.13;;;;;;;21.84;70.30;99328.41;2206213;40;20027;-88
2021/07/06 10:38:56;;;;;;;3.65;1.30;;;;;;;21.79;70.13;99329.09;2208107;40;20081;-89
2021/07/06 10:40:27;;;;;;;3.00;1.02;;;;;;;21.77;70.92;99322.25;2210194;40;20043;-86
2021/07/06 10:41:59;;;;;;;4.80;1.65;;;;;;;21.82;70.82;99314.22;2209932;40;20122;-89
2021/07/06 10:43:31;;;;;;;2.97;1.20;;;;;;;21.74;70.44;99315.41;2209900;40;20027;-86
2021/07/06 10:45:18;;;;;;;3.17;1.40;;;;;;;21.80;70.32;99314.44;2209061;40;20178;-86
2021/07/06 10:46:50;;;;;;;4.88;1.38;;;;;;;21.95;70.19;99307.72;2209461;40;20442;-85
2021/07/06 10:48:41;;;;;;;2.90;1.10;;;;;;;22.15;69.80;99301.06;2210086;40;20035;-86
2021/07/06 10:50:39;;;;;;;4.47;1.48;;;;;;;22.26;69.58;99302.91;2209082;40;20055;-86
2021/07/06 10:52:11;;;;;;;2.85;1.13;;;;;;;22.47;68.52;99297.94;2210222;40;20037;-87
2021/07/06 10:54:04;;;;;;;6.57;2.10;;;;;;;22.91;67.31;99287.31;2209700;40;20085;-88
2021/07/06 10:55:37;;;;;;;3.50;1.20;;;;;;;23.27;65.85;99277.09;2209269;40;20041;-86
2021/07/06 10:57:49;;;;;;;3.40;1.20;;;;;;;23.54;64.91;99279.16;2210034;40;20038;-85
2021/07/06 10:59:21;;;;;;;3.60;1.40;;;;;;;23.98;63.89;99281.19;2209599;40;20286;-86
2021/07/06 11:00:53;;;;;;;3.03;1.17;;;;;;;24.22;62.47;99289.97;2209213;40;20035;-87
2021/07/06 11:02:26;;;;;;;3.53;1.27;;;;;;;24.07;61.61;99285.13;2209635;40;20375;-84
2021/07/06 11:03:57;;;;;;;2.88;1.00;;;;;;;23.77;62.63;99275.41;2213715;40;20101;-85
2021/07/06 11:05:32;;;;;;;3.35;1.05;;;;;;;23.65;63.32;99280.97;2214224;40;20053;-84
2021/07/06 11:07:03;;;;;;;3.20;0.90;;;;;;;23.95;62.15;99276.22;2213778;40;20041;-84
2021/07/06 11:08:42;;;;;;;3.17;1.00;;;;;;;24.17;61.45;99259.84;2217194;40;20064;-84
2021/07/06 11:10:16;;;;;;;2.95;1.17;;;;;;;24.23;62.10;99258.81;2219703;40;20049;-84
2021/07/06 11:11:48;;;;;;;2.45;1.00;;;;;;;24.50;61.19;99243.56;2219915;40;20034;-82
2021/07/06 11:13:21;;;;;;;2.25;0.90;;;;;;;24.75;60.18;99243.84;2220552;40;20029;-85
2021/07/06 11:14:54;;;;;;;5.25;1.63;;;;;;;24.86;59.95;99246.69;2215738;40;20381;-85
2021/07/06 11:16:37;;;;;;;3.30;1.13;;;;;;;24.86;59.28;99252.16;2207431;40;20039;-82
2021/07/06 11:18:10;;;;;;;3.03;1.10;;;;;;;24.77;59.20;99252.63;2207598;40;20043;-83
2021/07/06 11:19:44;;;;;;;2.78;0.90;;;;;;;24.72;59.31;99259.94;2207130;40;20042;-79
2021/07/06 11:21:37;;;;;;;4.40;1.30;;;;;;;24.61;58.95;99257.06;2208166;40;20042;-84
2021/07/06 11:23:10;;;;;;;3.72;1.15;;;;;;;24.41;59.88;99260.41;2217546;40;20048;-82
2021/07/06 11:24:43;;;;;;;3.08;1.00;;;;;;;24.41;60.02;99259.59;2219271;40;20045;-83
2021/07/06 11:26:20;;;;;;;4.50;1.20;;;;;;;24.44;60.30;99262.63;2219092;40;20034;-84
2021/07/06 11:27:57;;;;;;;3.55;0.98;;;;;;;24.36;59.98;99256.78;2213022;40;20029;-84
2021/07/06 11:29:35;;;;;;;2.67;0.95;;;;;;;24.09;60.26;99263.84;2219059;40;20078;-83
2021/07/06 11:31:18;;;;;;;3.30;1.13;;;;;;;23.90;60.94;99274.22;2218280;40;20110;-83
2021/07/06 11:33:05;;;;;;;2.10;0.90;;;;;;;23.90;61.46;99281.59;2217995;40;20034;-83
2021/07/06 11:34:38;;;;;;;1.77;0.75;;;;;;;23.70;61.71;99293.84;2210663;40;20034;-83
2021/07/06 11:36:18;;;;;;;4.60;1.08;;;;;;;23.56;62.12;99300.72;2211849;40;20046;-84
2021/07/06 11:37:49;;;;;;;2.70;1.00;;;;;;;23.46;62.35;99310.38;2216994;40;20476;-83
2021/07/06 11:39:21;;;;;;;2.47;0.95;;;;;;;23.40;62.43;99316.00;2218232;40;20045;-83
2021/07/06 11:40:57;;;;;;;3.15;1.10;;;;;;;23.35;62.86;99322.19;2216362;40;20037;-82
2021/07/06 11:42:30;;;;;;;3.28;1.00;;;;;;;23.32;63.09;99326.25;2211712;40;20049;-82
2021/07/06 11:44:01;;;;;;;2.60;1.08;;;;;;;23.24;63.03;99323.13;2212882;40;20042;-83
2021/07/06 11:45:33;;;;;;;3.08;1.05;;;;;;;23.13;62.98;99332.97;2212045;40;20037;-84
2021/07/06 11:47:09;;;;;;;3.50;1.10;;;;;;;22.97;62.06;99331.84;2213607;40;20365;-83
2021/07/06 11:48:43;;;;;;;3.05;1.13;;;;;;;22.97;61.97;99338.13;2218262;40;20082;-84
2021/07/06 11:50:24;;;;;;;2.67;0.90;;;;;;;22.90;61.55;99351.91;2218034;40;20405;-82
2021/07/06 11:52:00;;;;;;;3.45;1.35;;;;;;;22.88;61.39;99359.50;2212191;40;20046;-82
2021/07/06 11:53:34;;;;;;;3.17;0.98;;;;;;;22.89;61.34;99355.69;2210741;40;20037;-82
2021/07/06 11:55:06;;;;;;;3.50;1.40;;;;;;;22.97;61.32;99356.38;2211223;40;20038;-83
2021/07/06 11:56:39;;;;;;;4.20;0.90;;;;;;;22.99;61.21;99351.50;2211977;40;20112;-82
2021/07/06 11:58:13;;;;;;;3.28;1.33;;;;;;;22.95;61.45;99362.06;2211939;40;20038;-82
2021/07/06 11:59:44;;;;;;;5.72;1.25;;;;;;;22.95;62.30;99358.53;2213899;40;20044;-84
2021/07/06 12:01:17;;;;;;;3.67;1.13;;;;;;;22.83;62.49;99364.84;2218126;40;20034;-83
2021/07/06 12:02:49;;;;;;;2.90;1.05;;;;;;;22.62;62.97;99371.78;2218188;40;20068;-84
2021/07/06 12:04:23;;;;;;;2.78;0.98;;;;;;;22.59;63.19;99364.91;2215704;40;20034;-82
2021/07/06 12:05:58;;;;;;;4.80;1.15;;;;;;;22.67;62.88;99368.34;2213617;40;20057;-81
2021/07/06 12:07:29;;;;;;;4.03;1.40;;;;;;;22.50;62.70;99374.53;2213066;40;20052;-82
2021/07/06 12:09:05;;;;;;;2.78;0.95;;;;;;;22.40;63.06;99377.03;2212627;40;20468;-81
2021/07/06 12:10:54;;;;;;;2.35;0.60;;;;;;;22.29;63.36;99374.03;2214837;40;20026;-82
2021/07/06 12:12:27;;;;;;;2.60;0.70;;;;;;;22.20;63.69;99380.91;2215287;40;20050;-82
2021/07/06 12:14:00;;;;;;;4.45;1.00;;;;;;;22.21;63.72;99392.66;2213105;40;20057;-82
2021/07/06 12:15:44;;;;;;;2.60;0.90;;;;;;;22.18;64.07;99398.56;2212396;40;20057;-83
2021/07/06 12:17:27;;;;;;;2.45;0.80;;;;;;;22.12;63.78;99420.22;2212972;40;20034;-82
2021/07/06 12:19:00;;;;;;;2.22;0.80;;;;;;;21.98;64.26;99416.06;2212248;40;20042;-82
2021/07/06 12:20:31;;;;;;;4.07;0.90;;;;;;;21.93;64.07;99414.03;2215109;40;20321;-81
2021/07/06 12:22:03;;;;;;;2.25;0.70;;;;;;;21.88;64.20;99421.25;2220609;40;20038;-87
2021/07/06 12:23:37;;;;;;;3.08;0.80;;;;;;;21.94;64.24;99415.69;2219190;40;20037;-84
2021/07/06 12:25:11;;;;;;;2.63;0.90;;;;;;;21.96;64.39;99416.31;2220822;40;20045;-86
2021/07/06 12:26:47;;;;;;;2.85;0.77;;;;;;;21.85;64.69;99411.66;2221150;40;20042;-86
2021/07/06 12:28:19;;;;;;;2.28;0.63;;;;;;;21.77;64.57;99414.75;2221105;40;20657;-85
2021/07/06 12:30:02;;;;;;;4.10;0.73;;;;;;;21.76;64.60;99413.06;2220792;40;20042;-85
2021/07/06 12:31:34;;;;;;;3.38;0.77;;;;;;;21.79;64.81;99418.88;2221443;40;20079;-85
2021/07/06 12:33:07;;;;;;;5.00;1.60;;;;;;;21.91;64.50;99413.47;2221041;40;20041;-85
2021/07/06 12:34:45;;;;;;;2.75;1.02;;;;;;;22.01;64.21;99415.59;2221239;40;20362;-85
2021/07/06 12:36:27;;;;;;;3.97;1.08;;;;;;;22.04;64.14;99419.72;2220456;40;20045;-88
2021/07/06 12:38:02;;;;;;;1.75;0.70;;;;;;;22.03;63.96;99418.91;2220719;40;20061;-89
2021/07/06 12:39:35;;;;;;;1.85;0.70;;;;;;;21.99;64.04;99431.31;2221279;40;20088;-87
2021/07/06 12:41:18;;;;;;;1.80;0.70;;;;;;;21.98;64.10;99432.38;2220795;40;20048;-87
2021/07/06 12:42:51;;;;;;;3.05;0.90;;;;;;;22.00;63.55;99429.44;2215354;40;20025;-87
2021/07/06 12:44:31;;;;;;;2.35;0.90;;;;;;;21.86;64.13;99416.06;2215861;40;20033;-86